createdAt,value
2018-03-23T00:00:43.362Z,7.50
2018-03-23T00:03:14.266Z,7.10
2018-03-23T00:05:44.959Z,8.20
2018-03-23T00:08:16.003Z,7.70
2018-03-23T00:10:46.159Z,8.05
2018-03-23T00:13:17.088Z,7.63
2018-03-23T00:15:47.961Z,8.70
2018-03-23T00:18:19.436Z,8.07
2018-03-23T00:20:49.127Z,8.23
2018-03-23T00:23:19.547Z,8.00
2018-03-23T00:25:49.571Z,9.10
2018-03-23T00:28:19.808Z,8.83
2018-03-23T00:30:50.833Z,9.00
2018-03-23T00:33:20.987Z,9.37
2018-03-23T00:35:51.341Z,9.73
2018-03-23T00:38:21.589Z,8.20
2018-03-23T00:40:51.912Z,9.90
2018-03-23T00:43:23.453Z,8.70
2018-03-23T00:45:54.418Z,8.18
2018-03-23T00:48:25.068Z,8.90
2018-03-23T00:50:56.200Z,8.43
2018-03-23T00:53:26.694Z,8.33
2018-03-23T00:55:56.935Z,9.87
2018-03-23T00:58:26.832Z,10.50
2018-03-23T01:00:57.168Z,9.00
2018-03-23T01:03:26.963Z,8.80
2018-03-23T01:05:57.812Z,9.80
2018-03-23T01:08:27.562Z,9.32
2018-03-23T01:10:58.104Z,10.17
2018-03-23T01:13:28.342Z,9.80
2018-03-23T01:15:58.291Z,9.23
2018-03-23T01:18:28.383Z,9.83
2018-03-23T01:20:58.427Z,9.55
2018-03-23T01:23:29.265Z,9.63
2018-03-23T01:25:59.097Z,9.97
2018-03-23T01:28:29.123Z,10.27
2018-03-23T01:31:00.326Z,10.48
2018-03-23T01:33:31.416Z,9.40
2018-03-23T01:36:01.139Z,9.70
2018-03-23T01:38:30.846Z,9.87
2018-03-23T01:41:01.314Z,10.27
2018-03-23T01:43:31.046Z,10.43
2018-03-23T01:46:02.618Z,10.70
2018-03-23T01:48:33.584Z,10.20
2018-03-23T01:51:03.310Z,11.10
2018-03-23T01:53:45.141Z,10.55
2018-03-23T01:56:14.843Z,10.18
2018-03-23T01:58:44.582Z,11.73
2018-03-23T02:01:15.086Z,11.47
2018-03-23T02:03:45.306Z,11.70
2018-03-23T02:06:15.091Z,10.87
2018-03-23T02:08:44.781Z,11.40
2018-03-23T02:11:14.561Z,10.00
2018-03-23T02:13:44.303Z,9.70
2018-03-23T02:16:15.076Z,10.47
2018-03-23T02:18:45.736Z,10.52
2018-03-23T02:21:16.995Z,10.33
2018-03-23T02:23:47.866Z,10.70
2018-03-23T02:26:17.634Z,10.30
2018-03-23T02:28:48.545Z,9.50
2018-03-23T02:31:20.402Z,10.20
2018-03-23T02:33:52.116Z,10.00
2018-03-23T02:36:22.720Z,9.73
2018-03-23T02:38:53.354Z,9.80
2018-03-23T02:41:25.749Z,8.90
2018-03-23T02:43:55.501Z,9.70
2018-03-23T02:46:25.530Z,9.50
2018-03-23T02:48:55.982Z,10.20
2018-03-23T02:51:26.303Z,10.60
2018-03-23T02:53:57.640Z,10.40
2018-03-23T02:56:27.366Z,11.07
2018-03-23T02:58:58.686Z,11.43
2018-03-23T03:01:29.033Z,11.18
2018-03-23T03:03:59.520Z,11.10
2018-03-23T03:06:29.294Z,11.50
2018-03-23T03:09:00.825Z,11.40
2018-03-23T03:11:31.283Z,11.27
2018-03-23T03:14:01.460Z,12.07
2018-03-23T03:16:31.155Z,10.90
2018-03-23T03:19:01.386Z,10.52
2018-03-23T03:21:31.312Z,12.33
2018-03-23T03:24:01.477Z,11.65
2018-03-23T03:26:32.150Z,12.13
2018-03-23T03:29:02.202Z,11.87
2018-03-23T03:31:33.460Z,11.90
2018-03-23T03:34:03.798Z,12.02
2018-03-23T03:36:34.050Z,12.27
2018-03-23T03:39:04.383Z,12.57
2018-03-23T03:41:34.170Z,12.40
2018-03-23T03:44:03.893Z,12.30
2018-03-23T03:46:33.615Z,12.60
2018-03-23T03:49:03.920Z,12.43
2018-03-23T03:51:33.676Z,12.45
2018-03-23T03:54:04.877Z,11.90
2018-03-23T03:56:34.909Z,10.77
2018-03-23T03:59:04.907Z,12.80
2018-03-23T04:01:35.379Z,12.37
2018-03-23T04:04:06.386Z,12.67
2018-03-23T04:06:36.943Z,12.60
2018-03-23T04:09:07.481Z,12.73
2018-03-23T04:11:39.071Z,13.03
2018-03-23T04:14:09.425Z,14.23
2018-03-23T04:16:39.749Z,13.70
2018-03-23T04:19:10.048Z,13.98
2018-03-23T04:21:40.613Z,14.20
2018-03-23T04:24:10.375Z,14.82
2018-03-23T04:26:40.167Z,14.97
2018-03-23T04:29:11.166Z,17.15
2018-03-23T04:31:41.642Z,16.03
2018-03-23T04:34:12.804Z,16.87
2018-03-23T04:36:42.476Z,15.85
2018-03-23T04:39:13.358Z,15.60
2018-03-23T04:41:43.708Z,16.67
2018-03-23T04:44:13.420Z,17.30
2018-03-23T04:46:43.169Z,17.60
2018-03-23T04:49:15.840Z,17.95
2018-03-23T04:51:46.569Z,18.80
2018-03-23T04:54:17.214Z,19.20
2018-03-23T04:56:48.209Z,18.80
2018-03-23T04:59:19.595Z,18.87
2018-03-23T05:01:50.706Z,19.45
2018-03-23T05:04:21.790Z,19.90
2018-03-23T05:06:52.581Z,18.95
2018-03-23T05:09:23.039Z,20.00
2018-03-23T05:11:53.531Z,19.12
2018-03-23T05:14:23.556Z,19.80
2018-03-23T05:16:53.885Z,20.60
2018-03-23T05:19:24.168Z,20.90
2018-03-23T05:21:54.175Z,20.67
2018-03-23T05:24:25.476Z,19.50
2018-03-23T05:26:56.181Z,20.48
2018-03-23T05:29:28.821Z,23.03
2018-03-23T05:32:00.127Z,20.77
2018-03-23T05:34:30.353Z,21.83
2018-03-23T05:37:02.797Z,21.07
2018-03-23T05:39:32.498Z,21.20
2018-03-23T05:42:03.606Z,20.50
2018-03-23T05:44:34.250Z,21.03
2018-03-23T05:47:04.606Z,21.17
2018-03-23T05:49:34.922Z,22.77
2018-03-23T05:52:05.513Z,21.63
2018-03-23T05:54:36.320Z,21.20
2018-03-23T05:57:06.223Z,20.13
2018-03-23T05:59:36.513Z,20.62
2018-03-23T06:02:06.447Z,19.80
2018-03-23T06:04:36.874Z,19.25
2018-03-23T06:07:07.193Z,20.23
2018-03-23T06:09:37.408Z,20.20
2018-03-23T06:12:07.798Z,20.47
2018-03-23T06:14:38.852Z,20.87
2018-03-23T06:17:09.846Z,20.70
2018-03-23T06:19:39.975Z,21.90
2018-03-23T06:22:10.498Z,20.98
2018-03-23T06:24:40.237Z,21.10
2018-03-23T06:27:09.929Z,19.10
2018-03-23T06:29:40.308Z,20.13
2018-03-23T06:32:10.724Z,20.37
2018-03-23T06:34:40.445Z,21.23
2018-03-23T06:37:10.125Z,19.70
2018-03-23T06:39:41.182Z,20.83
2018-03-23T06:42:11.508Z,21.70
2018-03-23T07:04:58.622Z,20.67
2018-03-23T07:07:29.135Z,22.27
2018-03-23T07:09:58.874Z,21.97
2018-03-23T07:12:29.402Z,22.90
2018-03-23T07:14:59.174Z,23.57
2018-03-23T07:17:28.879Z,22.97
2018-03-23T07:19:59.091Z,22.03
2018-03-23T07:22:28.855Z,21.27
2018-03-23T07:24:58.694Z,22.97
2018-03-23T07:27:28.467Z,22.43
2018-03-23T07:29:58.907Z,22.67
2018-03-23T07:32:28.724Z,20.00
2018-03-23T07:34:58.881Z,22.23
2018-03-23T07:37:29.234Z,21.37
2018-03-23T07:39:59.712Z,21.50
2018-03-23T07:42:30.239Z,20.70
2018-03-23T07:44:59.959Z,21.30
2018-03-23T07:47:29.789Z,20.93
2018-03-23T07:49:59.516Z,20.27
2018-03-23T07:52:30.007Z,20.30
2018-03-23T07:57:34.949Z,20.17
2018-03-23T08:00:05.427Z,19.03
2018-03-23T08:02:36.107Z,19.67
2018-03-23T08:05:06.538Z,19.73
2018-03-23T08:07:37.025Z,20.43
2018-03-23T08:10:07.124Z,18.47
2018-03-23T08:12:38.770Z,21.80
2018-03-23T08:15:08.811Z,21.27
2018-03-23T08:17:38.512Z,21.73
2018-03-23T08:20:08.789Z,20.07
2018-03-23T08:22:38.962Z,20.87
2018-03-23T08:25:09.297Z,20.80
2018-03-23T08:27:40.518Z,20.97
2018-03-23T08:30:11.865Z,20.50
2018-03-23T08:32:41.670Z,21.03
2018-03-23T08:35:11.882Z,20.70
2018-03-23T08:37:42.141Z,21.00
2018-03-23T08:40:12.193Z,19.60
2018-03-23T08:42:42.044Z,19.93
2018-03-23T08:45:12.155Z,20.30
2018-03-23T08:47:42.251Z,18.83
2018-03-23T08:50:12.855Z,20.50
2018-03-23T08:52:43.899Z,19.77
2018-03-23T08:55:14.934Z,19.00
2018-03-23T08:57:46.893Z,19.73
2018-03-23T09:00:17.352Z,19.23
2018-03-23T09:02:47.756Z,19.87
2018-03-23T09:05:18.620Z,19.20
2018-03-23T09:07:49.295Z,20.70
2018-03-23T09:10:19.724Z,21.83
2018-03-23T09:12:49.747Z,19.90
2018-03-23T09:15:19.863Z,20.37
2018-03-23T09:17:50.132Z,21.93
2018-03-23T09:20:20.198Z,20.80
2018-03-23T09:22:50.652Z,21.50
2018-03-23T09:25:21.479Z,21.33
2018-03-23T09:27:52.680Z,20.90
2018-03-23T09:30:22.449Z,21.83
2018-03-23T10:05:25.477Z,21.13
2018-03-23T10:07:56.463Z,20.70
2018-03-23T10:10:27.466Z,20.60
2018-03-23T10:12:58.261Z,21.93
2018-03-23T10:15:29.818Z,21.17
2018-03-23T10:18:01.028Z,20.10
2018-03-23T10:20:31.969Z,19.40
2018-03-23T10:23:02.976Z,21.60
2018-03-23T10:25:33.868Z,22.00
2018-03-23T10:28:10.759Z,20.97
2018-03-23T10:30:42.565Z,20.83
2018-03-23T10:33:13.489Z,20.50
2018-03-23T10:35:45.104Z,20.00
2018-03-23T10:38:16.725Z,20.60
2018-03-23T10:40:47.740Z,21.57
2018-03-23T10:43:18.703Z,20.63
2018-03-23T10:45:49.599Z,21.00
2018-03-23T10:48:20.761Z,20.03
2018-03-23T10:50:51.856Z,20.20
2018-03-23T10:53:22.635Z,18.73
2018-03-23T10:55:53.405Z,19.70
2018-03-23T10:58:24.193Z,19.73
2018-03-23T11:00:59.951Z,19.00
2018-03-23T11:03:32.496Z,18.00
2018-03-23T11:06:04.116Z,18.80
2018-03-23T11:08:34.680Z,19.00
2018-03-23T11:11:06.326Z,19.23
2018-03-23T11:13:38.017Z,18.80
2018-03-23T11:16:08.848Z,20.00
2018-03-23T11:18:39.587Z,19.17
2018-03-23T11:21:10.398Z,18.43
2018-03-23T11:23:41.937Z,18.77
2018-03-23T11:26:13.320Z,19.73
2018-03-23T11:28:44.149Z,17.47
2018-03-23T11:31:15.650Z,17.20
2018-03-23T11:33:46.545Z,17.60
2018-03-23T11:36:17.132Z,17.27
2018-03-23T11:38:48.824Z,16.37
2018-03-23T11:41:20.459Z,15.47
2018-03-23T11:43:52.274Z,15.30
2018-03-23T11:46:23.972Z,12.83
2018-03-23T11:48:54.736Z,14.50
2018-03-23T11:51:25.215Z,14.20
2018-03-23T11:53:55.993Z,12.67
2018-03-23T11:56:27.586Z,12.60
2018-03-23T11:58:58.431Z,14.40
2018-03-23T12:01:29.179Z,13.07
2018-03-23T12:04:00.149Z,12.33
2018-03-23T12:06:32.025Z,11.00
2018-03-23T12:09:02.913Z,10.37
2018-03-23T12:11:33.853Z,9.40
2018-03-23T12:14:04.704Z,8.83
2018-03-23T12:16:35.541Z,9.70
2018-03-23T12:19:06.275Z,8.63
2018-03-23T12:21:37.167Z,8.73
2018-03-23T12:24:08.049Z,8.20
2018-03-23T12:26:38.864Z,7.70
2018-03-23T12:29:09.914Z,7.63
2018-03-23T12:31:40.802Z,7.03
2018-03-23T12:34:11.577Z,7.10
2018-03-23T12:36:43.125Z,7.20
2018-03-23T12:39:13.889Z,7.07
2018-03-23T12:41:44.863Z,7.00
2018-03-23T12:44:15.863Z,6.80
2018-03-23T12:46:47.525Z,7.10
2018-03-23T12:49:18.480Z,6.33
2018-03-23T12:51:51.262Z,6.47
2018-03-23T12:54:22.894Z,6.60
2018-03-23T12:56:53.888Z,6.27
2018-03-23T12:59:24.587Z,6.10
2018-03-23T13:01:56.224Z,6.50
2018-03-23T13:04:26.948Z,5.37
2018-03-23T13:06:57.847Z,5.83
2018-03-23T13:09:28.497Z,5.97
2018-03-23T13:11:59.269Z,5.75
2018-03-23T13:14:31.946Z,5.80
2018-03-23T13:17:02.752Z,5.67
2018-03-23T13:19:33.682Z,5.80
2018-03-23T13:22:04.596Z,6.43
2018-03-23T13:24:35.293Z,5.43
2018-03-23T13:27:06.820Z,6.00
2018-03-23T13:29:37.784Z,5.77
2018-03-23T13:32:09.365Z,5.83
2018-03-23T13:34:40.242Z,5.57
2018-03-23T13:37:12.425Z,5.20
2018-03-23T13:39:44.468Z,5.22
2018-03-23T13:42:15.136Z,5.30
2018-03-23T13:44:46.103Z,5.30
2018-03-23T13:47:17.028Z,5.20
2018-03-23T13:49:48.974Z,6.13
2018-03-23T13:52:20.765Z,5.23
2018-03-23T13:54:51.484Z,5.03
2018-03-23T13:57:23.125Z,6.03
2018-03-23T13:59:58.838Z,5.70
2018-03-23T14:02:29.720Z,5.17
2018-03-23T14:05:00.563Z,5.27
2018-03-23T14:07:32.304Z,5.20
2018-03-23T14:10:04.140Z,6.30
2018-03-23T14:12:35.048Z,6.20
2018-03-23T14:15:07.104Z,6.22
2018-03-23T14:17:38.610Z,6.17
2018-03-23T14:20:09.712Z,6.60
2018-03-23T14:22:40.972Z,6.70
2018-03-23T14:25:12.288Z,6.18
2018-03-23T14:27:43.792Z,6.53
2018-03-23T14:30:14.561Z,7.87
2018-03-23T14:32:46.140Z,7.37
2018-03-23T14:35:18.206Z,7.43
2018-03-23T14:37:49.500Z,7.77
2018-03-23T14:40:21.104Z,9.60
2018-03-23T14:42:52.048Z,9.30
2018-03-23T14:45:22.973Z,10.60
2018-03-23T14:47:55.390Z,12.13
2018-03-23T14:50:26.184Z,13.97
2018-03-23T14:52:57.011Z,12.82
2018-03-23T14:55:28.652Z,13.65
2018-03-23T14:58:00.720Z,13.43
2018-03-23T15:00:32.503Z,13.10
2018-03-23T15:03:03.449Z,12.33
2018-03-23T15:05:34.280Z,12.05
2018-03-23T15:08:05.432Z,10.90
2018-03-23T15:10:37.483Z,9.67
2018-03-23T15:13:08.397Z,10.60
2018-03-23T15:15:39.312Z,10.63
2018-03-23T15:18:10.338Z,9.73
2018-03-23T15:20:42.019Z,9.53
2018-03-23T15:23:14.215Z,9.63
2018-03-23T15:25:45.937Z,9.27
2018-03-23T15:28:22.749Z,9.00
2018-03-23T15:30:54.706Z,9.30
2018-03-23T15:33:25.790Z,9.63
2018-03-23T15:35:56.960Z,9.77
2018-03-23T15:38:28.087Z,9.40
2018-03-23T15:40:59.600Z,8.20
2018-03-23T15:43:31.152Z,8.60
2018-03-23T15:46:02.007Z,8.13
2018-03-23T15:48:32.796Z,8.63
2018-03-23T15:51:04.531Z,8.60
2018-03-23T15:53:35.308Z,8.83
2018-03-23T15:56:07.151Z,8.77
2018-03-23T15:58:38.210Z,8.75
2018-03-23T16:01:10.004Z,8.57
2018-03-23T16:03:40.813Z,8.10
2018-03-23T16:06:12.783Z,8.10
2018-03-23T16:08:44.525Z,8.07
2018-03-23T16:11:17.368Z,7.62
2018-03-23T16:13:48.272Z,8.27
2018-03-23T16:16:19.428Z,8.27
2018-03-23T16:18:50.140Z,8.90
2018-03-23T16:21:20.563Z,7.27
2018-03-23T16:23:51.472Z,7.82
2018-03-23T16:26:23.059Z,8.73
2018-03-23T16:28:54.037Z,7.93
2018-03-23T16:31:24.892Z,7.67
2018-03-23T16:33:55.845Z,8.47
2018-03-23T16:36:27.241Z,7.90
2018-03-23T16:38:58.832Z,7.80
2018-03-23T16:41:30.599Z,8.63
2018-03-23T16:44:02.318Z,7.77
2018-03-23T16:46:33.331Z,9.00
2018-03-23T16:49:04.196Z,7.82
2018-03-23T16:51:35.352Z,9.10
2018-03-23T16:54:06.508Z,8.00
2018-03-23T16:56:37.353Z,9.05
2018-03-23T16:59:08.083Z,8.43
2018-03-23T17:01:39.129Z,8.10
2018-03-23T17:04:11.196Z,8.67
2018-03-23T17:06:42.045Z,9.18
2018-03-23T17:09:13.815Z,8.80
2018-03-23T17:11:44.820Z,9.20
2018-03-23T17:14:17.441Z,8.50
2018-03-23T17:16:48.381Z,9.07
2018-03-23T17:19:19.244Z,8.80
2018-03-23T17:21:50.347Z,8.90
2018-03-23T17:24:22.869Z,9.47
2018-03-23T17:26:53.362Z,8.57
2018-03-23T17:29:24.706Z,9.57
2018-03-23T17:31:55.482Z,9.27
2018-03-23T17:34:26.477Z,8.10
2018-03-23T17:36:57.209Z,8.40
2018-03-23T17:39:28.896Z,8.57
2018-03-23T17:41:59.338Z,9.38
2018-03-23T17:44:30.099Z,9.37
2018-03-23T17:47:01.107Z,8.90
2018-03-23T17:49:31.960Z,8.38
2018-03-23T17:52:03.260Z,9.20
2018-03-23T17:54:34.705Z,9.57
2018-03-23T17:57:06.203Z,9.17
2018-03-23T17:59:37.095Z,9.50
2018-03-23T18:02:08.664Z,9.47
2018-03-23T18:04:39.140Z,8.80
2018-03-23T18:07:09.581Z,10.30
2018-03-23T18:09:40.876Z,8.93
2018-03-23T18:12:11.466Z,9.80
2018-03-23T18:14:42.840Z,9.68
2018-03-23T18:17:13.346Z,10.50
2018-03-23T18:19:44.947Z,9.77
2018-03-23T18:22:16.035Z,10.43
2018-03-23T18:24:47.188Z,10.46
2018-03-23T18:27:18.436Z,9.73
2018-03-23T18:29:49.992Z,10.27
2018-03-23T18:32:21.729Z,9.93
2018-03-23T18:34:53.317Z,10.73
2018-03-23T18:37:24.394Z,10.55
2018-03-23T18:39:55.793Z,9.90
2018-03-23T18:42:26.849Z,11.20
2018-03-23T18:44:59.241Z,10.68
2018-03-23T18:47:30.246Z,10.93
2018-03-23T18:50:01.640Z,11.03
2018-03-23T18:52:32.790Z,9.38
2018-03-23T18:55:03.709Z,11.07
2018-03-23T18:57:34.380Z,11.50
2018-03-23T19:00:05.249Z,11.60
2018-03-23T19:02:36.104Z,11.00
2018-03-23T19:05:06.755Z,11.07
2018-03-23T19:07:37.543Z,11.40
2018-03-23T19:10:14.244Z,11.40
2018-03-23T19:12:45.198Z,11.98
2018-03-23T19:15:15.764Z,12.23
2018-03-23T19:17:46.698Z,11.00
2018-03-23T19:20:17.476Z,11.57
2018-03-23T19:22:48.079Z,11.63
2018-03-23T19:25:18.937Z,12.73
2018-03-23T19:27:50.859Z,12.20
2018-03-23T19:30:22.346Z,12.45
2018-03-23T19:32:53.927Z,12.97
2018-03-23T19:35:24.724Z,11.25
2018-03-23T19:37:56.360Z,12.13
2018-03-23T19:40:27.216Z,11.70
2018-03-23T19:42:58.884Z,12.67
2018-03-23T19:45:30.619Z,12.48
2018-03-23T19:48:01.611Z,13.33
2018-03-23T19:50:33.100Z,12.93
2018-03-23T19:53:04.220Z,13.60
2018-03-23T19:55:34.678Z,12.05
2018-03-23T19:58:05.655Z,12.20
2018-03-23T20:00:36.138Z,12.30
2018-03-23T20:03:06.938Z,12.40
2018-03-23T20:05:37.397Z,12.13
2018-03-23T20:08:08.234Z,12.60
2018-03-23T20:10:38.996Z,11.87
2018-03-23T20:13:10.412Z,14.27
2018-03-23T20:15:41.208Z,13.10
2018-03-23T20:18:17.002Z,12.05
2018-03-23T20:20:52.900Z,12.27
2018-03-23T20:23:24.746Z,12.03
2018-03-23T20:25:57.209Z,11.60
2018-03-23T20:28:35.499Z,12.20
2018-03-23T20:31:07.089Z,13.40
2018-03-23T20:33:38.814Z,14.18
2018-03-23T20:36:09.789Z,13.00
2018-03-23T20:38:41.268Z,12.63
2018-03-23T20:41:12.123Z,12.23
2018-03-23T20:43:43.136Z,12.03
2018-03-23T20:46:13.767Z,13.23
2018-03-23T20:48:45.134Z,12.27
2018-03-23T20:51:16.046Z,13.40
2018-03-23T20:53:46.869Z,14.20
2018-03-23T20:56:19.427Z,12.40
2018-03-23T20:58:50.723Z,13.23
2018-03-23T21:01:21.431Z,13.53
2018-03-23T21:03:52.923Z,12.77
2018-03-23T21:06:24.592Z,13.80
2018-03-23T21:08:55.552Z,12.90
2018-03-23T21:11:26.457Z,12.67
2018-03-23T21:13:57.611Z,13.70
2018-03-23T21:16:28.495Z,13.60
2018-03-23T21:19:00.823Z,13.57
2018-03-23T21:21:31.558Z,13.83
2018-03-23T21:24:02.146Z,13.98
2018-03-23T21:26:33.679Z,13.57
2018-03-23T21:29:05.085Z,13.20
2018-03-23T21:31:35.647Z,14.27
2018-03-23T21:34:06.281Z,13.20
2018-03-23T21:36:37.288Z,14.57
2018-03-23T21:39:08.084Z,14.50
2018-03-23T21:41:38.896Z,12.40
2018-03-23T21:44:10.717Z,13.53
2018-03-23T21:46:41.704Z,13.90
2018-03-23T21:49:14.447Z,13.47
2018-03-23T21:51:45.540Z,13.30
2018-03-23T21:54:16.060Z,13.27
2018-03-23T21:56:47.726Z,12.23
2018-03-23T21:59:18.563Z,12.83
2018-03-23T22:01:49.435Z,13.98
2018-03-23T22:04:21.000Z,12.73
2018-03-23T22:06:52.045Z,13.95
2018-03-23T22:09:25.144Z,13.20
2018-03-23T22:11:56.657Z,13.20
2018-03-23T22:14:27.138Z,13.00
2018-03-23T22:16:58.920Z,13.90
2018-03-23T22:19:30.371Z,13.70
2018-03-23T22:22:01.268Z,14.37
2018-03-23T22:24:31.943Z,14.20
2018-03-23T22:27:02.879Z,13.18
2018-03-23T22:29:33.711Z,13.03
2018-03-23T22:32:04.281Z,14.13
2018-03-23T22:34:35.155Z,14.57
2018-03-23T22:37:07.369Z,13.47
2018-03-23T22:39:38.360Z,13.90
2018-03-23T22:42:09.794Z,14.20
2018-03-23T22:44:40.556Z,13.93
2018-03-23T22:47:12.140Z,13.90
2018-03-23T22:49:43.436Z,14.00
2018-03-23T22:52:14.469Z,13.67
2018-03-23T22:54:45.274Z,15.00
2018-03-23T22:57:16.181Z,14.87
2018-03-23T22:59:47.711Z,14.60
2018-03-23T23:02:18.961Z,16.67
2018-03-23T23:04:50.290Z,15.87
2018-03-23T23:07:21.085Z,13.85
2018-03-23T23:09:51.582Z,14.67
2018-03-23T23:12:23.248Z,15.33
2018-03-23T23:14:55.022Z,15.23
2018-03-23T23:17:26.003Z,13.87
2018-03-23T23:19:57.679Z,15.73
2018-03-23T23:22:28.459Z,14.63
2018-03-23T23:24:59.316Z,17.00
2018-03-23T23:27:30.271Z,15.27
2018-03-23T23:30:01.137Z,15.83
2018-03-23T23:32:32.555Z,16.37
2018-03-23T23:35:03.169Z,16.67
2018-03-23T23:37:33.988Z,16.70
2018-03-23T23:40:04.742Z,16.30
2018-03-23T23:42:35.343Z,16.60
2018-03-23T23:45:05.772Z,16.87
2018-03-23T23:47:36.504Z,17.27
2018-03-23T23:50:06.945Z,16.30
2018-03-23T23:52:37.928Z,16.20
2018-03-23T23:55:08.712Z,17.00
2018-03-23T23:57:39.434Z,17.50
